createdAt,value
2019-02-11T00:00:34.934Z,3.30
2019-02-11T00:03:04.016Z,3.30
2019-02-11T00:05:33.176Z,3.40
2019-02-11T00:08:02.358Z,3.50
2019-02-11T00:10:31.435Z,3.60
2019-02-11T00:13:00.524Z,3.60
2019-02-11T00:15:30.611Z,3.70
2019-02-11T00:17:59.740Z,3.70
2019-02-11T00:20:28.830Z,3.80
2019-02-11T00:22:57.936Z,3.80
2019-02-11T00:25:27.046Z,3.80
2019-02-11T00:27:56.141Z,3.70
2019-02-11T00:30:25.303Z,3.60
2019-02-11T00:32:54.454Z,3.60
2019-02-11T00:35:23.650Z,3.50
2019-02-11T00:37:52.738Z,3.40
2019-02-11T00:40:21.808Z,3.30
2019-02-11T00:42:50.894Z,3.20
2019-02-11T00:45:19.984Z,3.00
2019-02-11T00:47:49.052Z,2.90
2019-02-11T00:50:18.150Z,2.90
2019-02-11T00:52:47.243Z,2.80
2019-02-11T00:55:16.416Z,2.80
2019-02-11T00:57:45.506Z,2.70
2019-02-11T01:00:14.999Z,2.70
2019-02-11T01:02:44.176Z,2.60
2019-02-11T01:05:13.266Z,2.60
2019-02-11T01:07:42.366Z,2.70
2019-02-11T01:10:12.050Z,2.80
2019-02-11T01:12:41.144Z,2.70
2019-02-11T01:15:11.873Z,2.70
2019-02-11T01:17:40.969Z,2.70
2019-02-11T01:20:11.819Z,2.70
2019-02-11T01:22:40.920Z,2.70
2019-02-11T01:25:10.146Z,2.70
2019-02-11T01:27:39.220Z,2.70
2019-02-11T01:30:10.863Z,2.70
2019-02-11T01:32:39.948Z,2.70
2019-02-11T01:35:09.093Z,2.60
2019-02-11T01:37:38.207Z,2.60
2019-02-11T01:40:09.803Z,2.60
2019-02-11T01:42:38.898Z,2.50
2019-02-11T01:45:09.238Z,2.50
2019-02-11T01:47:38.356Z,2.50
2019-02-11T01:50:09.381Z,2.50
2019-02-11T01:52:38.453Z,2.60
2019-02-11T01:55:07.559Z,2.70
2019-02-11T01:57:36.647Z,2.70
2019-02-11T02:00:07.746Z,2.70
2019-02-11T02:02:36.861Z,2.80
2019-02-11T02:05:06.269Z,2.80
2019-02-11T02:07:35.534Z,2.90
2019-02-11T02:10:05.501Z,2.90
2019-02-11T02:12:34.586Z,2.90
2019-02-11T02:15:04.175Z,3.00
2019-02-11T02:17:34.835Z,3.00
2019-02-11T02:20:04.140Z,3.00
2019-02-11T02:22:33.213Z,3.00
2019-02-11T02:25:02.316Z,3.00
2019-02-11T02:27:31.409Z,3.00
2019-02-11T02:30:00.495Z,3.00
2019-02-11T02:32:29.591Z,3.00
2019-02-11T02:34:58.651Z,3.10
2019-02-11T02:37:27.738Z,3.10
2019-02-11T02:39:56.833Z,3.10
2019-02-11T02:42:25.935Z,3.10
2019-02-11T02:44:55.072Z,3.10
2019-02-11T02:47:24.140Z,3.10
2019-02-11T02:49:53.266Z,3.10
2019-02-11T02:52:22.359Z,3.10
2019-02-11T02:54:51.615Z,3.00
2019-02-11T02:57:20.705Z,3.00
2019-02-11T02:59:49.711Z,3.00
2019-02-11T03:02:18.778Z,3.10
2019-02-11T03:04:47.931Z,3.10
2019-02-11T03:07:17.021Z,3.10
2019-02-11T03:09:46.112Z,3.10
2019-02-11T03:12:15.220Z,3.10
2019-02-11T03:14:44.295Z,3.20
2019-02-11T03:17:13.389Z,3.20
2019-02-11T03:19:42.499Z,3.20
2019-02-11T03:22:11.612Z,3.20
2019-02-11T03:24:40.693Z,3.20
2019-02-11T03:27:09.777Z,3.20
2019-02-11T03:29:38.795Z,3.20
2019-02-11T03:32:07.903Z,3.10
2019-02-11T03:34:37.069Z,3.00
2019-02-11T03:37:06.218Z,3.00
2019-02-11T03:39:35.318Z,3.00
2019-02-11T03:42:04.403Z,3.10
2019-02-11T03:44:33.796Z,3.10
2019-02-11T03:47:02.936Z,3.10
2019-02-11T03:49:31.953Z,3.10
2019-02-11T03:52:01.041Z,3.10
2019-02-11T03:54:30.103Z,3.20
2019-02-11T03:56:59.182Z,3.20
2019-02-11T03:59:28.395Z,3.20
2019-02-11T04:01:57.485Z,3.10
2019-02-11T04:04:26.473Z,3.00
2019-02-11T04:06:55.543Z,3.00
2019-02-11T04:09:24.627Z,2.90
2019-02-11T04:11:53.708Z,2.80
2019-02-11T04:14:25.024Z,2.80
2019-02-11T04:16:53.606Z,2.80
2019-02-11T04:19:22.712Z,2.70
2019-02-11T04:22:05.463Z,2.70
2019-02-11T04:24:34.603Z,2.70
2019-02-11T04:27:03.676Z,2.70
2019-02-11T04:29:32.789Z,2.70
2019-02-11T04:32:01.862Z,2.70
2019-02-11T04:34:30.945Z,2.70
2019-02-11T04:37:00.031Z,2.70
2019-02-11T04:39:29.120Z,2.70
2019-02-11T04:41:58.211Z,2.80
2019-02-11T04:44:33.827Z,2.80
2019-02-11T04:46:58.115Z,2.80
2019-02-11T04:49:27.209Z,2.90
2019-02-11T04:51:56.293Z,2.80
2019-02-11T04:54:25.367Z,2.80
2019-02-11T04:56:54.433Z,2.70
2019-02-11T04:59:23.526Z,2.60
2019-02-11T05:01:52.597Z,2.50
2019-02-11T05:04:21.677Z,2.60
2019-02-11T05:06:50.770Z,2.60
2019-02-11T05:09:19.834Z,2.60
2019-02-11T05:11:48.994Z,2.70
2019-02-11T05:14:18.069Z,2.70
2019-02-11T05:16:47.130Z,2.60
2019-02-11T05:19:16.274Z,2.50
2019-02-11T05:21:45.359Z,2.50
2019-02-11T05:24:14.362Z,2.40
2019-02-11T05:26:43.510Z,2.30
2019-02-11T05:29:12.580Z,2.20
2019-02-11T05:31:41.680Z,2.20
2019-02-11T05:34:10.746Z,2.10
2019-02-11T05:36:39.830Z,2.10
2019-02-11T05:39:08.994Z,2.10
2019-02-11T05:41:38.067Z,2.00
2019-02-11T05:44:07.144Z,1.90
2019-02-11T05:46:36.204Z,2.00
2019-02-11T05:49:05.288Z,1.90
2019-02-11T05:51:34.437Z,1.90
2019-02-11T05:54:03.505Z,1.80
2019-02-11T05:56:32.620Z,1.90
2019-02-11T05:59:01.762Z,1.90
2019-02-11T06:01:30.858Z,1.90
2019-02-11T06:03:59.982Z,1.90
2019-02-11T06:06:29.086Z,2.00
2019-02-11T06:08:58.153Z,2.10
2019-02-11T06:11:27.254Z,2.10
2019-02-11T06:13:56.355Z,2.10
2019-02-11T06:16:25.427Z,2.00
2019-02-11T06:18:54.527Z,2.10
2019-02-11T06:21:23.626Z,2.00
2019-02-11T06:23:52.690Z,2.00
2019-02-11T06:26:21.778Z,2.10
2019-02-11T06:28:50.848Z,2.10
2019-02-11T06:31:19.950Z,2.20
2019-02-11T06:33:49.041Z,2.30
2019-02-11T06:36:18.164Z,2.40
2019-02-11T06:38:47.238Z,2.50
2019-02-11T06:41:16.230Z,2.50
2019-02-11T06:43:45.305Z,2.60
2019-02-11T06:46:14.388Z,2.60
2019-02-11T06:48:43.465Z,2.70
2019-02-11T06:51:12.568Z,2.70
2019-02-11T06:53:41.654Z,2.70
2019-02-11T06:56:10.745Z,2.70
2019-02-11T06:58:39.816Z,2.70
2019-02-11T07:01:08.894Z,2.70
2019-02-11T07:03:37.974Z,2.70
2019-02-11T07:06:07.052Z,2.70
2019-02-11T07:08:36.126Z,2.70
2019-02-11T07:11:05.190Z,2.70
2019-02-11T07:13:34.248Z,2.70
2019-02-11T07:16:03.311Z,2.70
2019-02-11T07:18:32.378Z,2.70
2019-02-11T07:21:01.948Z,2.70
2019-02-11T07:23:31.086Z,2.70
2019-02-11T07:26:00.160Z,2.70
2019-02-11T07:28:29.212Z,2.70
2019-02-11T07:30:58.758Z,2.70
2019-02-11T07:33:27.845Z,2.80
2019-02-11T07:35:56.944Z,2.70
2019-02-11T07:38:26.030Z,2.70
2019-02-11T07:40:55.138Z,2.70
2019-02-11T07:43:33.746Z,2.60
2019-02-11T07:46:09.837Z,2.50
2019-02-11T07:48:39.004Z,2.50
2019-02-11T07:51:08.101Z,2.40
2019-02-11T07:53:37.276Z,2.40
2019-02-11T07:56:06.364Z,2.40
2019-02-11T07:58:35.513Z,2.40
2019-02-11T08:01:04.677Z,2.50
2019-02-11T08:03:33.771Z,2.60
2019-02-11T08:06:02.866Z,2.70
2019-02-11T08:08:31.949Z,2.80
2019-02-11T08:11:01.031Z,2.80
2019-02-11T08:13:30.164Z,2.80
2019-02-11T08:15:59.262Z,3.00
2019-02-11T08:18:28.333Z,3.10
2019-02-11T08:20:57.444Z,3.20
2019-02-11T08:23:26.526Z,3.30
2019-02-11T08:25:55.693Z,3.50
2019-02-11T08:28:24.771Z,3.60
2019-02-11T08:30:53.864Z,3.70
2019-02-11T08:33:23.060Z,3.70
2019-02-11T08:35:52.135Z,3.80
2019-02-11T08:38:21.231Z,3.80
2019-02-11T08:40:50.315Z,3.80
2019-02-11T08:43:19.484Z,3.80
2019-02-11T08:45:48.575Z,3.80
2019-02-11T08:48:17.741Z,3.90
2019-02-11T08:50:46.857Z,3.90
2019-02-11T08:53:15.943Z,3.90
2019-02-11T08:55:46.377Z,4.00
2019-02-11T08:58:15.637Z,4.00
2019-02-11T09:00:44.832Z,3.90
2019-02-11T09:03:13.961Z,4.00
2019-02-11T09:05:43.041Z,4.00
2019-02-11T09:08:12.131Z,4.00
2019-02-11T09:10:41.217Z,4.00
2019-02-11T09:13:10.333Z,4.00
2019-02-11T09:15:39.440Z,4.10
2019-02-11T09:18:08.576Z,4.10
2019-02-11T09:20:37.734Z,4.20
2019-02-11T09:23:06.855Z,4.20
2019-02-11T09:25:35.945Z,4.20
2019-02-11T09:28:05.073Z,4.20
2019-02-11T09:30:34.185Z,4.10
2019-02-11T09:33:03.379Z,4.20
2019-02-11T09:35:32.445Z,4.20
2019-02-11T09:38:01.529Z,4.20
2019-02-11T09:40:30.623Z,4.20
2019-02-11T09:42:59.628Z,4.20
2019-02-11T09:45:28.747Z,4.20
2019-02-11T09:47:57.823Z,4.10
2019-02-11T09:50:47.743Z,4.00
2019-02-11T09:53:16.839Z,3.90
2019-02-11T09:55:50.767Z,3.90
2019-02-11T09:58:19.868Z,4.10
2019-02-11T10:00:49.113Z,4.30
2019-02-11T10:03:18.212Z,4.50
2019-02-11T10:05:47.389Z,4.60
2019-02-11T10:08:16.567Z,4.80
2019-02-11T10:10:45.663Z,5.00
2019-02-11T10:13:14.756Z,5.10
2019-02-11T10:15:43.853Z,5.30
2019-02-11T10:18:12.935Z,5.40
2019-02-11T10:20:42.045Z,5.40
2019-02-11T10:23:11.156Z,5.50
2019-02-11T10:25:40.241Z,5.50
2019-02-11T10:28:11.387Z,5.50
2019-02-11T10:30:40.757Z,5.60
2019-02-11T10:33:10.131Z,5.60
2019-02-11T10:35:42.230Z,5.60
2019-02-11T10:38:10.244Z,5.50
2019-02-11T10:40:39.548Z,5.50
2019-02-11T10:43:08.651Z,5.50
2019-02-11T10:45:37.755Z,5.50
2019-02-11T10:48:06.884Z,5.50
2019-02-11T10:50:36.085Z,5.50
2019-02-11T10:53:05.162Z,5.50
2019-02-11T10:55:34.359Z,5.40
2019-02-11T10:58:03.437Z,5.50
2019-02-11T11:00:32.691Z,5.40
2019-02-11T11:03:01.879Z,5.30
2019-02-11T11:05:31.121Z,5.40
2019-02-11T11:08:00.241Z,5.40
2019-02-11T11:10:31.537Z,5.50
2019-02-11T11:13:00.615Z,5.60
2019-02-11T11:15:29.891Z,5.70
2019-02-11T11:17:59.060Z,5.80
2019-02-11T11:20:28.457Z,6.00
2019-02-11T11:22:57.557Z,6.10
2019-02-11T11:25:26.643Z,6.20
2019-02-11T11:27:55.749Z,6.20
2019-02-11T11:30:26.320Z,6.20
2019-02-11T11:32:57.145Z,6.20
2019-02-11T11:35:26.247Z,6.30
2019-02-11T11:37:55.363Z,6.40
2019-02-11T11:40:24.454Z,6.50
2019-02-11T11:42:53.535Z,6.50
2019-02-11T11:45:22.623Z,6.50
2019-02-11T11:47:51.769Z,6.40
2019-02-11T11:50:21.220Z,6.30
2019-02-11T11:52:50.291Z,6.20
2019-02-11T11:55:20.730Z,6.00
2019-02-11T11:57:49.903Z,5.90
2019-02-11T12:00:24.423Z,5.80
2019-02-11T12:03:01.651Z,5.70
2019-02-11T12:05:24.924Z,5.70
2019-02-11T12:07:54.812Z,5.80
2019-02-11T12:10:23.940Z,5.90
2019-02-11T12:12:53.067Z,6.20
2019-02-11T12:15:23.397Z,6.40
2019-02-11T12:17:52.669Z,6.50
2019-02-11T12:20:21.973Z,6.60
2019-02-11T12:22:51.163Z,6.70
2019-02-11T12:25:20.266Z,6.90
2019-02-11T12:27:49.426Z,7.00
2019-02-11T12:30:21.084Z,7.10
2019-02-11T12:32:53.846Z,7.00
2019-02-11T12:35:20.979Z,6.90
2019-02-11T12:37:50.143Z,6.90
2019-02-11T12:40:19.322Z,6.80
2019-02-11T12:42:48.424Z,6.60
2019-02-11T12:45:19.206Z,6.60
2019-02-11T12:47:48.407Z,6.60
2019-02-11T12:50:17.803Z,6.60
2019-02-11T12:52:46.948Z,6.70
2019-02-11T12:55:16.122Z,6.70
2019-02-11T12:57:45.266Z,6.60
2019-02-11T13:00:19.532Z,6.70
2019-02-11T13:02:48.820Z,6.70
2019-02-11T13:05:22.023Z,6.80
2019-02-11T13:07:48.888Z,6.90
2019-02-11T13:10:18.669Z,6.90
2019-02-11T13:12:47.763Z,6.90
2019-02-11T13:15:41.819Z,6.90
2019-02-11T13:17:47.919Z,6.90
2019-02-11T13:20:17.196Z,6.90
2019-02-11T13:22:46.503Z,6.90
2019-02-11T13:25:15.976Z,7.00
2019-02-11T13:27:45.087Z,7.00
2019-02-11T13:30:18.070Z,7.00
2019-02-11T13:32:47.362Z,6.90
2019-02-11T13:35:16.501Z,6.90
2019-02-11T13:37:45.728Z,7.00
2019-02-11T13:40:14.894Z,7.00
2019-02-11T13:42:44.141Z,7.00
2019-02-11T13:45:15.290Z,7.00
2019-02-11T13:47:53.834Z,7.00
2019-02-11T13:50:18.302Z,7.00
2019-02-11T13:52:47.579Z,6.90
2019-02-11T13:55:16.880Z,6.80
2019-02-11T13:57:45.985Z,6.60
2019-02-11T14:00:21.006Z,6.50
2019-02-11T14:02:52.153Z,6.40
2019-02-11T14:05:21.635Z,6.40
2019-02-11T14:07:50.952Z,6.50
2019-02-11T14:10:20.105Z,6.60
2019-02-11T14:12:49.833Z,6.70
2019-02-11T14:15:20.841Z,6.80
2019-02-11T14:17:49.758Z,6.80
2019-02-11T14:20:21.161Z,6.90
2019-02-11T14:22:50.266Z,7.00
2019-02-11T14:25:39.475Z,7.00
2019-02-11T14:27:50.414Z,7.00
2019-02-11T14:30:20.530Z,6.90
2019-02-11T14:32:49.610Z,6.80
2019-02-11T14:35:18.874Z,6.70
2019-02-11T14:37:47.983Z,6.70
2019-02-11T14:40:17.228Z,6.60
2019-02-11T14:42:46.351Z,6.50
2019-02-11T14:45:15.631Z,6.50
2019-02-11T14:47:44.977Z,6.50
2019-02-11T14:50:14.050Z,6.50
2019-02-11T14:52:43.232Z,6.50
2019-02-11T14:55:12.318Z,6.40
2019-02-11T14:57:41.420Z,6.30
2019-02-11T15:00:15.733Z,6.30
2019-02-11T15:02:44.834Z,6.30
2019-02-11T15:05:14.613Z,6.30
2019-02-11T15:07:43.984Z,6.30
2019-02-11T15:10:13.298Z,6.40
2019-02-11T15:12:42.423Z,6.50
2019-02-11T15:15:11.513Z,6.60
2019-02-11T15:17:40.996Z,6.60
2019-02-11T15:20:14.093Z,6.60
2019-02-11T15:22:43.146Z,6.50
2019-02-11T15:25:13.882Z,6.30
2019-02-11T15:27:43.052Z,6.20
2019-02-11T15:30:14.524Z,6.00
2019-02-11T15:32:43.600Z,5.90
2019-02-11T15:35:12.939Z,5.80
2019-02-11T15:37:42.062Z,5.70
2019-02-11T15:40:13.653Z,5.60
2019-02-11T15:42:42.750Z,5.60
2019-02-11T15:45:13.162Z,5.50
2019-02-11T15:47:42.258Z,5.50
2019-02-11T15:50:12.310Z,5.50
2019-02-11T15:52:41.701Z,5.40
2019-02-11T15:55:12.952Z,5.40
2019-02-11T15:57:42.072Z,5.40
2019-02-11T16:00:13.856Z,5.40
2019-02-11T16:02:43.013Z,5.40
2019-02-11T16:05:15.817Z,5.40
2019-02-11T16:07:43.050Z,5.30
2019-02-11T16:10:14.348Z,5.30
2019-02-11T16:12:43.524Z,5.20
2019-02-11T16:15:12.642Z,5.20
2019-02-11T16:17:41.744Z,5.20
2019-02-11T16:20:11.606Z,5.10
2019-02-11T16:22:42.570Z,5.10
2019-02-11T16:25:12.214Z,5.10
2019-02-11T16:27:41.302Z,5.00
2019-02-11T16:30:13.048Z,5.10
2019-02-11T16:32:42.148Z,5.00
2019-02-11T16:35:11.885Z,5.00
2019-02-11T16:37:40.978Z,4.90
2019-02-11T16:40:12.812Z,4.80
2019-02-11T16:42:42.010Z,4.70
2019-02-11T16:45:11.379Z,4.60
2019-02-11T16:47:40.468Z,4.60
2019-02-11T16:50:10.020Z,4.50
2019-02-11T16:52:39.128Z,4.40
2019-02-11T16:55:08.708Z,4.30
2019-02-11T16:57:37.862Z,4.20
2019-02-11T17:00:08.836Z,4.20
2019-02-11T17:02:37.942Z,4.10
2019-02-11T17:05:08.377Z,4.00
2019-02-11T17:07:41.990Z,4.00
2019-02-11T17:10:09.621Z,3.90
2019-02-11T17:12:38.800Z,3.90
2019-02-11T17:15:10.086Z,3.80
2019-02-11T17:17:39.190Z,3.70
2019-02-11T17:20:09.507Z,3.70
2019-02-11T17:22:38.618Z,3.60
2019-02-11T17:25:08.543Z,3.60
2019-02-11T17:27:37.654Z,3.50
2019-02-11T17:30:09.471Z,3.50
2019-02-11T17:32:38.632Z,3.50
2019-02-11T17:35:08.458Z,3.50
2019-02-11T17:37:37.534Z,3.50
2019-02-11T17:40:07.541Z,3.60
2019-02-11T17:42:36.640Z,3.70
2019-02-11T17:45:07.306Z,3.80
2019-02-11T17:47:36.402Z,3.90
2019-02-11T17:50:06.119Z,4.00
2019-02-11T17:52:35.193Z,4.10
2019-02-11T17:55:04.356Z,4.20
2019-02-11T17:57:33.461Z,4.20
2019-02-11T18:00:02.765Z,4.10
2019-02-11T18:02:31.895Z,4.10
2019-02-11T18:05:01.082Z,4.10
2019-02-11T18:07:30.183Z,4.10
2019-02-11T18:09:59.282Z,4.00
2019-02-11T18:12:28.330Z,4.00
2019-02-11T18:14:57.450Z,3.90
2019-02-11T18:17:26.570Z,3.80
2019-02-11T18:19:55.736Z,3.70
2019-02-11T18:22:24.835Z,3.60
2019-02-11T18:24:54.009Z,3.60
2019-02-11T18:27:23.119Z,3.50
2019-02-11T18:29:52.199Z,3.40
2019-02-11T18:32:21.309Z,3.40
2019-02-11T18:34:50.381Z,3.40
2019-02-11T18:37:19.639Z,3.50
2019-02-11T18:39:48.729Z,3.60
2019-02-11T18:42:17.827Z,3.70
2019-02-11T18:44:47.013Z,3.80
2019-02-11T18:47:16.200Z,3.90
2019-02-11T18:49:45.291Z,4.00
2019-02-11T18:52:14.477Z,4.10
2019-02-11T18:54:43.583Z,4.20
2019-02-11T18:57:12.692Z,4.20
2019-02-11T18:59:41.806Z,4.20
2019-02-11T19:02:10.904Z,4.30
2019-02-11T19:04:40.005Z,4.30
2019-02-11T19:07:09.094Z,4.30
2019-02-11T19:09:38.275Z,4.30
2019-02-11T19:12:07.370Z,4.30
2019-02-11T19:14:36.444Z,4.20
2019-02-11T19:17:05.555Z,4.20
2019-02-11T19:19:43.048Z,4.20
2019-02-11T19:22:08.252Z,4.30
2019-02-11T19:24:37.379Z,4.40
2019-02-11T19:27:06.509Z,4.40
2019-02-11T19:29:35.605Z,4.40
2019-02-11T19:32:04.895Z,4.40
2019-02-11T19:34:34.019Z,4.50
2019-02-11T19:37:03.531Z,4.50
2019-02-11T19:39:32.743Z,4.50
2019-02-11T19:42:01.843Z,4.50
2019-02-11T19:44:31.003Z,4.50
2019-02-11T19:47:00.190Z,4.60
2019-02-11T19:49:29.451Z,4.50
2019-02-11T19:51:58.622Z,4.60
2019-02-11T19:54:27.754Z,4.50
2019-02-11T19:56:56.861Z,4.60
2019-02-11T19:59:25.996Z,4.60
2019-02-11T20:01:55.209Z,4.60
2019-02-11T20:04:26.260Z,4.50
2019-02-11T20:07:03.976Z,4.40
2019-02-11T20:09:33.459Z,4.30
2019-02-11T20:12:02.571Z,4.20
2019-02-11T20:14:31.699Z,4.00
2019-02-11T20:17:00.804Z,3.90
2019-02-11T20:19:29.906Z,3.80
2019-02-11T20:21:59.082Z,3.70
2019-02-11T20:24:28.189Z,3.50
2019-02-11T20:26:57.307Z,3.40
2019-02-11T20:29:26.484Z,3.30
2019-02-11T20:31:55.683Z,3.20
2019-02-11T20:34:25.207Z,3.10
2019-02-11T20:36:54.554Z,3.00
2019-02-11T20:39:23.663Z,2.90
2019-02-11T20:41:52.769Z,2.80
2019-02-11T20:44:21.874Z,2.70
2019-02-11T20:46:51.017Z,2.60
2019-02-11T20:49:20.209Z,2.60
2019-02-11T20:51:49.326Z,2.60
2019-02-11T20:54:19.984Z,2.50
2019-02-11T20:56:49.096Z,2.40
2019-02-11T20:59:18.254Z,2.40
2019-02-11T21:01:47.344Z,2.30
2019-02-11T21:04:16.450Z,2.30
2019-02-11T21:06:45.558Z,2.30
2019-02-11T21:09:14.664Z,2.40
2019-02-11T21:11:43.769Z,2.60
2019-02-11T21:14:12.866Z,2.70
2019-02-11T21:16:41.985Z,2.90
2019-02-11T21:19:11.076Z,3.00
2019-02-11T21:21:40.228Z,3.10
2019-02-11T21:24:09.331Z,3.20
2019-02-11T21:26:38.419Z,3.20
2019-02-11T21:29:07.523Z,3.30
2019-02-11T21:31:36.984Z,3.40
2019-02-11T21:34:06.227Z,3.50
2019-02-11T21:36:35.316Z,3.50
2019-02-11T21:39:05.960Z,3.60
2019-02-11T21:41:35.096Z,3.70
2019-02-11T21:44:04.184Z,3.80
2019-02-11T21:46:33.329Z,3.90
2019-02-11T21:49:02.430Z,3.90
2019-02-11T21:51:31.573Z,3.90
2019-02-11T21:54:00.844Z,4.00
2019-02-11T21:56:29.922Z,3.90
2019-02-11T21:58:59.109Z,3.90
2019-02-11T22:01:28.218Z,3.90
2019-02-11T22:03:57.327Z,3.90
2019-02-11T22:06:26.428Z,3.90
2019-02-11T22:08:55.530Z,3.90
2019-02-11T22:11:24.638Z,3.80
2019-02-11T22:13:53.726Z,3.70
2019-02-11T22:16:22.836Z,3.60
2019-02-11T22:18:51.892Z,3.50
2019-02-11T22:21:21.005Z,3.30
2019-02-11T22:23:50.068Z,3.30
2019-02-11T22:26:19.184Z,3.20
2019-02-11T22:28:48.282Z,3.10
2019-02-11T22:31:17.392Z,3.10
2019-02-11T22:33:46.481Z,3.10
2019-02-11T22:36:15.631Z,3.10
2019-02-11T22:38:44.737Z,3.10
2019-02-11T22:41:13.865Z,3.10
2019-02-11T22:43:42.942Z,3.10
2019-02-11T22:46:12.052Z,3.10
2019-02-11T22:48:41.131Z,3.10
2019-02-11T22:51:10.229Z,3.00
2019-02-11T22:53:39.298Z,3.00
2019-02-11T22:56:08.426Z,3.00
2019-02-11T22:58:37.554Z,3.00
2019-02-11T23:01:07.839Z,3.00
2019-02-11T23:03:37.564Z,3.00
2019-02-11T23:06:06.727Z,2.90
2019-02-11T23:08:35.821Z,2.90
2019-02-11T23:11:04.947Z,2.80
2019-02-11T23:13:34.033Z,2.70
2019-02-11T23:16:03.177Z,2.70
2019-02-11T23:18:32.424Z,2.70
2019-02-11T23:21:01.536Z,2.60
2019-02-11T23:23:30.639Z,2.60
2019-02-11T23:25:59.740Z,2.60
2019-02-11T23:28:28.853Z,2.70
2019-02-11T23:30:57.970Z,2.70
2019-02-11T23:33:27.078Z,2.70
2019-02-11T23:35:56.246Z,2.70
2019-02-11T23:38:25.327Z,2.70
2019-02-11T23:40:54.511Z,2.60
2019-02-11T23:43:23.586Z,2.60
2019-02-11T23:45:52.689Z,2.60
2019-02-11T23:48:21.781Z,2.50
2019-02-11T23:50:50.873Z,2.50
2019-02-11T23:53:19.970Z,2.40
2019-02-11T23:55:49.057Z,2.40
2019-02-11T23:58:18.156Z,2.40
